sensor_id;sensor_type;location;lat;lon;timestamp;P1;durP1;ratioP1;P2;durP2;ratioP2
39848;SDS011;25518;47.878;15.914;2022-08-05T00:00:46;4.80;;;3.63;;
39848;SDS011;25518;47.878;15.914;2022-08-05T00:03:12;5.80;;;3.87;;
39848;SDS011;25518;47.878;15.914;2022-08-05T00:05:38;5.15;;;3.67;;
39848;SDS011;25518;47.878;15.914;2022-08-05T00:08:07;5.35;;;3.65;;
39848;SDS011;25518;47.878;15.914;2022-08-05T00:10:33;6.88;;;3.58;;
39848;SDS011;25518;47.878;15.914;2022-08-05T00:12:59;5.00;;;3.60;;
39848;SDS011;25518;47.878;15.914;2022-08-05T00:15:25;5.85;;;3.83;;
39848;SDS011;25518;47.878;15.914;2022-08-05T00:17:51;5.63;;;4.20;;
39848;SDS011;25518;47.878;15.914;2022-08-05T00:20:18;5.20;;;3.88;;
39848;SDS011;25518;47.878;15.914;2022-08-05T00:22:44;5.47;;;3.83;;
39848;SDS011;25518;47.878;15.914;2022-08-05T00:25:10;8.77;;;4.05;;
39848;SDS011;25518;47.878;15.914;2022-08-05T00:27:36;6.65;;;3.85;;
39848;SDS011;25518;47.878;15.914;2022-08-05T00:30:03;5.20;;;3.70;;
39848;SDS011;25518;47.878;15.914;2022-08-05T00:32:30;6.15;;;3.92;;
39848;SDS011;25518;47.878;15.914;2022-08-05T00:34:56;5.43;;;3.47;;
39848;SDS011;25518;47.878;15.914;2022-08-05T00:37:22;4.80;;;3.50;;
39848;SDS011;25518;47.878;15.914;2022-08-05T00:39:48;4.63;;;3.70;;
39848;SDS011;25518;47.878;15.914;2022-08-05T00:42:14;4.90;;;3.63;;
39848;SDS011;25518;47.878;15.914;2022-08-05T00:44:41;6.13;;;3.78;;
39848;SDS011;25518;47.878;15.914;2022-08-05T00:47:08;5.97;;;4.15;;
39848;SDS011;25518;47.878;15.914;2022-08-05T00:49:34;4.97;;;3.90;;
39848;SDS011;25518;47.878;15.914;2022-08-05T00:52:00;5.03;;;3.80;;
39848;SDS011;25518;47.878;15.914;2022-08-05T00:54:26;6.10;;;3.78;;
39848;SDS011;25518;47.878;15.914;2022-08-05T00:56:52;5.60;;;3.78;;
39848;SDS011;25518;47.878;15.914;2022-08-05T00:59:19;7.30;;;4.43;;
39848;SDS011;25518;47.878;15.914;2022-08-05T01:01:45;5.35;;;4.03;;
39848;SDS011;25518;47.878;15.914;2022-08-05T01:04:11;6.18;;;4.50;;
39848;SDS011;25518;47.878;15.914;2022-08-05T01:06:37;4.90;;;3.97;;
39848;SDS011;25518;47.878;15.914;2022-08-05T01:09:03;5.15;;;4.03;;
39848;SDS011;25518;47.878;15.914;2022-08-05T01:11:31;5.03;;;3.70;;
39848;SDS011;25518;47.878;15.914;2022-08-05T01:17:03;5.25;;;3.70;;
39848;SDS011;25518;47.878;15.914;2022-08-05T01:19:18;5.40;;;3.70;;
39848;SDS011;25518;47.878;15.914;2022-08-05T01:21:54;4.65;;;3.70;;
39848;SDS011;25518;47.878;15.914;2022-08-05T01:24:33;5.68;;;4.18;;
39848;SDS011;25518;47.878;15.914;2022-08-05T01:29:47;5.03;;;3.88;;
39848;SDS011;25518;47.878;15.914;2022-08-05T01:32:15;6.73;;;4.23;;
39848;SDS011;25518;47.878;15.914;2022-08-05T01:34:46;4.57;;;3.80;;
39848;SDS011;25518;47.878;15.914;2022-08-05T01:37:16;5.25;;;4.13;;
39848;SDS011;25518;47.878;15.914;2022-08-05T01:39:43;5.05;;;4.00;;
39848;SDS011;25518;47.878;15.914;2022-08-05T01:42:12;5.47;;;3.78;;
39848;SDS011;25518;47.878;15.914;2022-08-05T01:44:39;6.88;;;4.40;;
39848;SDS011;25518;47.878;15.914;2022-08-05T01:47:06;6.65;;;4.25;;
39848;SDS011;25518;47.878;15.914;2022-08-05T01:49:32;6.10;;;4.25;;
39848;SDS011;25518;47.878;15.914;2022-08-05T01:52:00;5.65;;;4.28;;
39848;SDS011;25518;47.878;15.914;2022-08-05T01:54:28;5.32;;;4.20;;
39848;SDS011;25518;47.878;15.914;2022-08-05T01:56:56;7.68;;;4.53;;
39848;SDS011;25518;47.878;15.914;2022-08-05T01:59:24;5.97;;;4.47;;
39848;SDS011;25518;47.878;15.914;2022-08-05T02:01:51;6.33;;;4.60;;
39848;SDS011;25518;47.878;15.914;2022-08-05T02:04:19;6.13;;;4.50;;
39848;SDS011;25518;47.878;15.914;2022-08-05T02:06:47;5.38;;;4.40;;
39848;SDS011;25518;47.878;15.914;2022-08-05T02:09:13;5.72;;;4.32;;
39848;SDS011;25518;47.878;15.914;2022-08-05T02:11:42;6.32;;;3.92;;
39848;SDS011;25518;47.878;15.914;2022-08-05T02:14:11;5.47;;;4.10;;
39848;SDS011;25518;47.878;15.914;2022-08-05T02:19:05;5.10;;;3.83;;
39848;SDS011;25518;47.878;15.914;2022-08-05T02:21:35;5.50;;;3.97;;
39848;SDS011;25518;47.878;15.914;2022-08-05T02:24:06;4.97;;;3.80;;
39848;SDS011;25518;47.878;15.914;2022-08-05T02:26:35;4.88;;;3.85;;
39848;SDS011;25518;47.878;15.914;2022-08-05T02:29:03;4.97;;;3.93;;
39848;SDS011;25518;47.878;15.914;2022-08-05T02:31:30;4.72;;;3.83;;
39848;SDS011;25518;47.878;15.914;2022-08-05T02:34:02;5.85;;;4.30;;
39848;SDS011;25518;47.878;15.914;2022-08-05T02:36:30;7.50;;;4.53;;
39848;SDS011;25518;47.878;15.914;2022-08-05T02:38:57;5.20;;;4.30;;
39848;SDS011;25518;47.878;15.914;2022-08-05T02:41:25;5.75;;;4.20;;
39848;SDS011;25518;47.878;15.914;2022-08-05T02:43:52;6.38;;;4.15;;
39848;SDS011;25518;47.878;15.914;2022-08-05T02:46:21;5.47;;;4.40;;
39848;SDS011;25518;47.878;15.914;2022-08-05T02:48:48;5.13;;;4.17;;
39848;SDS011;25518;47.878;15.914;2022-08-05T02:51:14;5.00;;;4.15;;
39848;SDS011;25518;47.878;15.914;2022-08-05T02:53:42;6.70;;;4.07;;
39848;SDS011;25518;47.878;15.914;2022-08-05T02:56:09;6.60;;;3.78;;
39848;SDS011;25518;47.878;15.914;2022-08-05T02:58:38;5.70;;;4.07;;
39848;SDS011;25518;47.878;15.914;2022-08-05T03:16:01;5.00;;;4.13;;
39848;SDS011;25518;47.878;15.914;2022-08-05T03:18:27;6.30;;;4.43;;
39848;SDS011;25518;47.878;15.914;2022-08-05T03:20:53;5.53;;;4.32;;
39848;SDS011;25518;47.878;15.914;2022-08-05T03:23:20;6.10;;;4.38;;
39848;SDS011;25518;47.878;15.914;2022-08-05T03:25:46;5.50;;;4.22;;
39848;SDS011;25518;47.878;15.914;2022-08-05T03:28:12;5.35;;;4.32;;
39848;SDS011;25518;47.878;15.914;2022-08-05T03:30:39;5.10;;;3.65;;
39848;SDS011;25518;47.878;15.914;2022-08-05T03:33:05;6.20;;;4.20;;
39848;SDS011;25518;47.878;15.914;2022-08-05T03:35:32;6.05;;;4.22;;
39848;SDS011;25518;47.878;15.914;2022-08-05T03:37:58;4.90;;;3.70;;
39848;SDS011;25518;47.878;15.914;2022-08-05T03:40:25;6.40;;;4.20;;
39848;SDS011;25518;47.878;15.914;2022-08-05T03:42:51;5.38;;;4.25;;
39848;SDS011;25518;47.878;15.914;2022-08-05T03:45:18;5.13;;;4.05;;
39848;SDS011;25518;47.878;15.914;2022-08-05T03:47:44;5.72;;;4.15;;
39848;SDS011;25518;47.878;15.914;2022-08-05T03:50:10;5.18;;;4.13;;
39848;SDS011;25518;47.878;15.914;2022-08-05T03:52:43;5.00;;;3.67;;
39848;SDS011;25518;47.878;15.914;2022-08-05T03:55:16;5.18;;;3.65;;
39848;SDS011;25518;47.878;15.914;2022-08-05T03:57:43;6.38;;;4.00;;
39848;SDS011;25518;47.878;15.914;2022-08-05T04:00:11;6.38;;;4.20;;
39848;SDS011;25518;47.878;15.914;2022-08-05T04:02:39;5.05;;;3.85;;
39848;SDS011;25518;47.878;15.914;2022-08-05T04:05:08;5.78;;;3.92;;
39848;SDS011;25518;47.878;15.914;2022-08-05T04:07:35;5.30;;;4.13;;
39848;SDS011;25518;47.878;15.914;2022-08-05T04:10:01;5.53;;;4.28;;
39848;SDS011;25518;47.878;15.914;2022-08-05T04:12:28;6.82;;;4.18;;
39848;SDS011;25518;47.878;15.914;2022-08-05T04:14:55;5.20;;;3.97;;
39848;SDS011;25518;47.878;15.914;2022-08-05T04:17:22;6.00;;;4.23;;
39848;SDS011;25518;47.878;15.914;2022-08-05T04:19:48;6.50;;;4.20;;
39848;SDS011;25518;47.878;15.914;2022-08-05T04:22:14;6.10;;;4.53;;
39848;SDS011;25518;47.878;15.914;2022-08-05T04:24:42;7.78;;;4.63;;
39848;SDS011;25518;47.878;15.914;2022-08-05T04:27:09;5.57;;;4.47;;
39848;SDS011;25518;47.878;15.914;2022-08-05T04:29:35;5.32;;;4.45;;
39848;SDS011;25518;47.878;15.914;2022-08-05T04:32:01;5.10;;;4.10;;
39848;SDS011;25518;47.878;15.914;2022-08-05T04:34:28;5.45;;;4.00;;
39848;SDS011;25518;47.878;15.914;2022-08-05T04:36:54;5.57;;;4.50;;
39848;SDS011;25518;47.878;15.914;2022-08-05T04:39:20;5.95;;;4.30;;
39848;SDS011;25518;47.878;15.914;2022-08-05T04:41:47;5.13;;;4.35;;
39848;SDS011;25518;47.878;15.914;2022-08-05T04:44:13;7.50;;;4.70;;
39848;SDS011;25518;47.878;15.914;2022-08-05T04:46:39;6.68;;;4.70;;
39848;SDS011;25518;47.878;15.914;2022-08-05T04:49:06;6.25;;;4.40;;
39848;SDS011;25518;47.878;15.914;2022-08-05T04:51:32;6.05;;;4.40;;
39848;SDS011;25518;47.878;15.914;2022-08-05T04:53:58;4.90;;;4.10;;
39848;SDS011;25518;47.878;15.914;2022-08-05T04:56:25;5.10;;;3.95;;
39848;SDS011;25518;47.878;15.914;2022-08-05T04:58:51;5.40;;;3.95;;
39848;SDS011;25518;47.878;15.914;2022-08-05T05:01:17;5.32;;;4.13;;
39848;SDS011;25518;47.878;15.914;2022-08-05T05:03:43;5.65;;;4.13;;
39848;SDS011;25518;47.878;15.914;2022-08-05T05:06:10;6.97;;;4.10;;
39848;SDS011;25518;47.878;15.914;2022-08-05T05:08:37;5.30;;;4.43;;
39848;SDS011;25518;47.878;15.914;2022-08-05T05:11:03;5.25;;;4.20;;
39848;SDS011;25518;47.878;15.914;2022-08-05T05:13:29;6.70;;;4.37;;
39848;SDS011;25518;47.878;15.914;2022-08-05T05:15:56;5.45;;;4.15;;
39848;SDS011;25518;47.878;15.914;2022-08-05T05:18:23;5.15;;;4.38;;
39848;SDS011;25518;47.878;15.914;2022-08-05T05:20:49;7.80;;;3.85;;
39848;SDS011;25518;47.878;15.914;2022-08-05T05:23:15;5.40;;;4.35;;
39848;SDS011;25518;47.878;15.914;2022-08-05T05:25:42;5.22;;;3.90;;
39848;SDS011;25518;47.878;15.914;2022-08-05T05:28:09;5.25;;;4.25;;
39848;SDS011;25518;47.878;15.914;2022-08-05T05:30:36;4.60;;;3.95;;
39848;SDS011;25518;47.878;15.914;2022-08-05T05:33:03;5.40;;;4.00;;
39848;SDS011;25518;47.878;15.914;2022-08-05T05:35:30;5.97;;;4.50;;
39848;SDS011;25518;47.878;15.914;2022-08-05T05:37:57;5.57;;;4.30;;
39848;SDS011;25518;47.878;15.914;2022-08-05T05:40:26;5.60;;;4.25;;
39848;SDS011;25518;47.878;15.914;2022-08-05T05:42:52;5.28;;;4.20;;
39848;SDS011;25518;47.878;15.914;2022-08-05T05:45:19;5.93;;;3.90;;
39848;SDS011;25518;47.878;15.914;2022-08-05T05:47:45;6.07;;;4.20;;
39848;SDS011;25518;47.878;15.914;2022-08-05T05:50:13;6.45;;;4.45;;
39848;SDS011;25518;47.878;15.914;2022-08-05T05:52:40;6.05;;;4.57;;
39848;SDS011;25518;47.878;15.914;2022-08-05T05:55:07;5.32;;;4.10;;
39848;SDS011;25518;47.878;15.914;2022-08-05T05:57:35;5.50;;;4.30;;
39848;SDS011;25518;47.878;15.914;2022-08-05T06:00:03;5.20;;;3.97;;
39848;SDS011;25518;47.878;15.914;2022-08-05T06:02:29;5.70;;;4.30;;
39848;SDS011;25518;47.878;15.914;2022-08-05T06:04:55;4.83;;;3.90;;
39848;SDS011;25518;47.878;15.914;2022-08-05T06:07:22;5.18;;;4.20;;
39848;SDS011;25518;47.878;15.914;2022-08-05T06:09:48;5.20;;;4.30;;
39848;SDS011;25518;47.878;15.914;2022-08-05T06:12:14;6.43;;;4.55;;
39848;SDS011;25518;47.878;15.914;2022-08-05T06:14:40;5.60;;;4.22;;
39848;SDS011;25518;47.878;15.914;2022-08-05T06:17:09;4.60;;;4.07;;
39848;SDS011;25518;47.878;15.914;2022-08-05T06:19:35;5.32;;;4.20;;
39848;SDS011;25518;47.878;15.914;2022-08-05T06:22:02;5.43;;;4.18;;
39848;SDS011;25518;47.878;15.914;2022-08-05T06:24:28;5.65;;;4.10;;
39848;SDS011;25518;47.878;15.914;2022-08-05T06:26:54;6.03;;;4.30;;
39848;SDS011;25518;47.878;15.914;2022-08-05T06:29:21;5.72;;;4.50;;
39848;SDS011;25518;47.878;15.914;2022-08-05T06:31:47;5.50;;;3.88;;
39848;SDS011;25518;47.878;15.914;2022-08-05T06:34:13;5.20;;;4.30;;
39848;SDS011;25518;47.878;15.914;2022-08-05T06:36:39;7.07;;;4.30;;
39848;SDS011;25518;47.878;15.914;2022-08-05T06:39:06;5.13;;;3.97;;
39848;SDS011;25518;47.878;15.914;2022-08-05T06:41:32;5.65;;;3.92;;
39848;SDS011;25518;47.878;15.914;2022-08-05T06:43:58;4.97;;;4.20;;
39848;SDS011;25518;47.878;15.914;2022-08-05T06:46:24;5.97;;;4.17;;
39848;SDS011;25518;47.878;15.914;2022-08-05T06:48:50;5.65;;;4.07;;
39848;SDS011;25518;47.878;15.914;2022-08-05T06:51:17;4.87;;;3.87;;
39848;SDS011;25518;47.878;15.914;2022-08-05T06:53:43;5.05;;;3.97;;
39848;SDS011;25518;47.878;15.914;2022-08-05T06:56:09;5.10;;;4.00;;
39848;SDS011;25518;47.878;15.914;2022-08-05T06:58:35;5.03;;;4.10;;
39848;SDS011;25518;47.878;15.914;2022-08-05T07:01:03;6.70;;;4.13;;
39848;SDS011;25518;47.878;15.914;2022-08-05T07:03:29;6.18;;;4.30;;
39848;SDS011;25518;47.878;15.914;2022-08-05T07:05:56;5.05;;;3.58;;
39848;SDS011;25518;47.878;15.914;2022-08-05T07:08:23;4.68;;;3.63;;
39848;SDS011;25518;47.878;15.914;2022-08-05T07:10:49;6.93;;;3.67;;
39848;SDS011;25518;47.878;15.914;2022-08-05T07:13:16;5.50;;;3.78;;
39848;SDS011;25518;47.878;15.914;2022-08-05T07:16:02;4.70;;;3.80;;
39848;SDS011;25518;47.878;15.914;2022-08-05T07:18:48;5.20;;;3.65;;
39848;SDS011;25518;47.878;15.914;2022-08-05T07:21:14;5.68;;;3.53;;
39848;SDS011;25518;47.878;15.914;2022-08-05T07:23:41;4.18;;;3.50;;
39848;SDS011;25518;47.878;15.914;2022-08-05T07:26:07;4.70;;;3.80;;
39848;SDS011;25518;47.878;15.914;2022-08-05T07:28:33;4.20;;;3.28;;
39848;SDS011;25518;47.878;15.914;2022-08-05T07:30:59;4.93;;;4.00;;
39848;SDS011;25518;47.878;15.914;2022-08-05T07:33:26;5.78;;;3.60;;
39848;SDS011;25518;47.878;15.914;2022-08-05T07:35:52;5.25;;;3.58;;
39848;SDS011;25518;47.878;15.914;2022-08-05T07:38:18;5.10;;;3.58;;
39848;SDS011;25518;47.878;15.914;2022-08-05T07:40:44;5.13;;;3.40;;
39848;SDS011;25518;47.878;15.914;2022-08-05T07:43:11;5.75;;;4.13;;
39848;SDS011;25518;47.878;15.914;2022-08-05T07:45:39;5.53;;;3.47;;
39848;SDS011;25518;47.878;15.914;2022-08-05T07:48:08;4.07;;;3.28;;
39848;SDS011;25518;47.878;15.914;2022-08-05T07:50:34;4.20;;;2.88;;
39848;SDS011;25518;47.878;15.914;2022-08-05T07:53:00;6.40;;;3.42;;
39848;SDS011;25518;47.878;15.914;2022-08-05T07:55:26;4.63;;;3.10;;
39848;SDS011;25518;47.878;15.914;2022-08-05T07:57:53;4.95;;;3.03;;
39848;SDS011;25518;47.878;15.914;2022-08-05T08:00:20;4.97;;;3.30;;
39848;SDS011;25518;47.878;15.914;2022-08-05T08:02:46;4.22;;;3.03;;
39848;SDS011;25518;47.878;15.914;2022-08-05T08:05:12;4.32;;;3.28;;
39848;SDS011;25518;47.878;15.914;2022-08-05T08:07:38;4.05;;;3.08;;
39848;SDS011;25518;47.878;15.914;2022-08-05T08:10:05;4.30;;;2.72;;
39848;SDS011;25518;47.878;15.914;2022-08-05T08:12:31;3.92;;;2.63;;
39848;SDS011;25518;47.878;15.914;2022-08-05T08:14:57;4.80;;;2.70;;
39848;SDS011;25518;47.878;15.914;2022-08-05T08:17:24;3.70;;;2.58;;
39848;SDS011;25518;47.878;15.914;2022-08-05T08:19:51;3.83;;;2.63;;
39848;SDS011;25518;47.878;15.914;2022-08-05T08:22:17;4.75;;;2.90;;
39848;SDS011;25518;47.878;15.914;2022-08-05T08:24:43;4.53;;;2.80;;
39848;SDS011;25518;47.878;15.914;2022-08-05T08:27:10;3.88;;;2.92;;
39848;SDS011;25518;47.878;15.914;2022-08-05T08:29:36;3.97;;;2.65;;
39848;SDS011;25518;47.878;15.914;2022-08-05T08:32:02;3.17;;;2.38;;
39848;SDS011;25518;47.878;15.914;2022-08-05T08:34:28;3.20;;;2.50;;
39848;SDS011;25518;47.878;15.914;2022-08-05T08:36:54;3.70;;;2.30;;
39848;SDS011;25518;47.878;15.914;2022-08-05T08:39:21;5.35;;;2.55;;
39848;SDS011;25518;47.878;15.914;2022-08-05T08:41:49;3.60;;;2.60;;
39848;SDS011;25518;47.878;15.914;2022-08-05T08:44:17;4.03;;;2.90;;
39848;SDS011;25518;47.878;15.914;2022-08-05T08:46:44;3.40;;;2.38;;
39848;SDS011;25518;47.878;15.914;2022-08-05T08:49:12;4.18;;;2.60;;
39848;SDS011;25518;47.878;15.914;2022-08-05T08:51:39;3.50;;;2.55;;
39848;SDS011;25518;47.878;15.914;2022-08-05T08:54:05;3.20;;;2.50;;
39848;SDS011;25518;47.878;15.914;2022-08-05T08:56:32;5.85;;;2.58;;
39848;SDS011;25518;47.878;15.914;2022-08-05T08:58:59;9.32;;;3.05;;
39848;SDS011;25518;47.878;15.914;2022-08-05T09:01:26;5.15;;;2.40;;
39848;SDS011;25518;47.878;15.914;2022-08-05T09:03:52;3.70;;;2.40;;
39848;SDS011;25518;47.878;15.914;2022-08-05T09:06:20;3.28;;;2.20;;
39848;SDS011;25518;47.878;15.914;2022-08-05T09:08:47;3.45;;;2.28;;
39848;SDS011;25518;47.878;15.914;2022-08-05T09:11:13;4.65;;;2.05;;
39848;SDS011;25518;47.878;15.914;2022-08-05T09:13:40;3.28;;;2.20;;
39848;SDS011;25518;47.878;15.914;2022-08-05T09:16:07;3.60;;;2.13;;
39848;SDS011;25518;47.878;15.914;2022-08-05T09:18:36;3.20;;;1.95;;
39848;SDS011;25518;47.878;15.914;2022-08-05T09:21:03;2.70;;;1.80;;
39848;SDS011;25518;47.878;15.914;2022-08-05T09:23:29;2.77;;;1.70;;
39848;SDS011;25518;47.878;15.914;2022-08-05T09:26:13;3.88;;;1.52;;
39848;SDS011;25518;47.878;15.914;2022-08-05T09:28:41;2.50;;;1.58;;
39848;SDS011;25518;47.878;15.914;2022-08-05T09:31:10;4.05;;;2.28;;
39848;SDS011;25518;47.878;15.914;2022-08-05T09:33:53;2.90;;;1.75;;
39848;SDS011;25518;47.878;15.914;2022-08-05T09:36:19;3.15;;;1.75;;
39848;SDS011;25518;47.878;15.914;2022-08-05T09:38:54;2.60;;;1.60;;
39848;SDS011;25518;47.878;15.914;2022-08-05T09:41:21;3.05;;;1.60;;
39848;SDS011;25518;47.878;15.914;2022-08-05T09:43:47;3.17;;;1.83;;
39848;SDS011;25518;47.878;15.914;2022-08-05T09:46:29;2.92;;;2.00;;
39848;SDS011;25518;47.878;15.914;2022-08-05T09:48:56;2.47;;;1.50;;
39848;SDS011;25518;47.878;15.914;2022-08-05T09:51:38;2.57;;;1.53;;
39848;SDS011;25518;47.878;15.914;2022-08-05T09:54:07;2.50;;;1.60;;
39848;SDS011;25518;47.878;15.914;2022-08-05T09:56:34;3.63;;;1.55;;
39848;SDS011;25518;47.878;15.914;2022-08-05T09:59:04;4.32;;;1.80;;
39848;SDS011;25518;47.878;15.914;2022-08-05T10:01:31;3.50;;;1.70;;
39848;SDS011;25518;47.878;15.914;2022-08-05T10:03:58;2.93;;;1.60;;
39848;SDS011;25518;47.878;15.914;2022-08-05T10:06:27;2.42;;;1.65;;
39848;SDS011;25518;47.878;15.914;2022-08-05T10:08:54;3.03;;;1.63;;
39848;SDS011;25518;47.878;15.914;2022-08-05T10:11:20;2.63;;;1.80;;
39848;SDS011;25518;47.878;15.914;2022-08-05T10:13:47;3.33;;;1.75;;
39848;SDS011;25518;47.878;15.914;2022-08-05T10:16:44;4.72;;;2.00;;
39848;SDS011;25518;47.878;15.914;2022-08-05T10:19:00;2.40;;;1.50;;
39848;SDS011;25518;47.878;15.914;2022-08-05T10:21:27;3.22;;;1.50;;
39848;SDS011;25518;47.878;15.914;2022-08-05T10:23:53;2.60;;;1.50;;
39848;SDS011;25518;47.878;15.914;2022-08-05T10:26:20;2.20;;;1.40;;
39848;SDS011;25518;47.878;15.914;2022-08-05T10:28:46;2.63;;;1.67;;
39848;SDS011;25518;47.878;15.914;2022-08-05T10:31:13;2.42;;;1.50;;
39848;SDS011;25518;47.878;15.914;2022-08-05T10:33:40;2.28;;;1.63;;
39848;SDS011;25518;47.878;15.914;2022-08-05T10:36:07;2.83;;;1.50;;
39848;SDS011;25518;47.878;15.914;2022-08-05T10:38:34;3.17;;;1.60;;
39848;SDS011;25518;47.878;15.914;2022-08-05T10:41:02;2.33;;;1.40;;
39848;SDS011;25518;47.878;15.914;2022-08-05T10:46:04;2.13;;;1.50;;
39848;SDS011;25518;47.878;15.914;2022-08-05T10:51:01;3.17;;;1.50;;
39848;SDS011;25518;47.878;15.914;2022-08-05T10:53:58;2.40;;;1.60;;
39848;SDS011;25518;47.878;15.914;2022-08-05T10:56:14;2.33;;;1.60;;
39848;SDS011;25518;47.878;15.914;2022-08-05T10:59:11;2.83;;;1.52;;
39848;SDS011;25518;47.878;15.914;2022-08-05T11:01:31;3.30;;;1.35;;
39848;SDS011;25518;47.878;15.914;2022-08-05T11:04:03;3.58;;;1.55;;
39848;SDS011;25518;47.878;15.914;2022-08-05T11:06:31;2.30;;;1.50;;
39848;SDS011;25518;47.878;15.914;2022-08-05T11:09:35;2.10;;;1.40;;
39848;SDS011;25518;47.878;15.914;2022-08-05T11:11:45;2.28;;;1.50;;
39848;SDS011;25518;47.878;15.914;2022-08-05T11:14:21;2.72;;;1.70;;
39848;SDS011;25518;47.878;15.914;2022-08-05T11:19:37;2.38;;;1.55;;
39848;SDS011;25518;47.878;15.914;2022-08-05T11:22:42;2.83;;;1.57;;
39848;SDS011;25518;47.878;15.914;2022-08-05T11:27:42;2.38;;;1.60;;
39848;SDS011;25518;47.878;15.914;2022-08-05T11:30:08;2.38;;;1.35;;
39848;SDS011;25518;47.878;15.914;2022-08-05T11:32:35;3.47;;;1.52;;
39848;SDS011;25518;47.878;15.914;2022-08-05T11:35:01;2.35;;;1.40;;
39848;SDS011;25518;47.878;15.914;2022-08-05T11:37:57;2.28;;;1.60;;
39848;SDS011;25518;47.878;15.914;2022-08-05T11:40:13;1.80;;;1.30;;
39848;SDS011;25518;47.878;15.914;2022-08-05T11:42:40;3.90;;;1.50;;
39848;SDS011;25518;47.878;15.914;2022-08-05T11:45:11;2.60;;;1.50;;
39848;SDS011;25518;47.878;15.914;2022-08-05T11:47:37;2.97;;;1.45;;
39848;SDS011;25518;47.878;15.914;2022-08-05T11:50:05;2.00;;;1.35;;
39848;SDS011;25518;47.878;15.914;2022-08-05T11:52:32;3.00;;;1.55;;
39848;SDS011;25518;47.878;15.914;2022-08-05T11:54:59;3.17;;;1.45;;
39848;SDS011;25518;47.878;15.914;2022-08-05T11:57:28;2.10;;;1.45;;
39848;SDS011;25518;47.878;15.914;2022-08-05T11:59:55;1.55;;;1.23;;
39848;SDS011;25518;47.878;15.914;2022-08-05T12:02:24;2.58;;;1.15;;
39848;SDS011;25518;47.878;15.914;2022-08-05T12:04:51;1.80;;;1.20;;
39848;SDS011;25518;47.878;15.914;2022-08-05T12:07:18;2.28;;;1.30;;
39848;SDS011;25518;47.878;15.914;2022-08-05T12:09:52;2.58;;;1.40;;
39848;SDS011;25518;47.878;15.914;2022-08-05T12:12:22;3.55;;;1.80;;
39848;SDS011;25518;47.878;15.914;2022-08-05T12:14:50;2.63;;;1.70;;
39848;SDS011;25518;47.878;15.914;2022-08-05T12:17:16;2.58;;;1.50;;
39848;SDS011;25518;47.878;15.914;2022-08-05T12:19:45;2.42;;;1.30;;
39848;SDS011;25518;47.878;15.914;2022-08-05T12:22:12;2.50;;;1.50;;
39848;SDS011;25518;47.878;15.914;2022-08-05T12:24:39;2.23;;;1.63;;
39848;SDS011;25518;47.878;15.914;2022-08-05T12:27:06;3.47;;;1.83;;
39848;SDS011;25518;47.878;15.914;2022-08-05T12:29:32;2.58;;;1.65;;
39848;SDS011;25518;47.878;15.914;2022-08-05T12:31:59;3.20;;;1.80;;
39848;SDS011;25518;47.878;15.914;2022-08-05T12:34:26;2.50;;;1.73;;
39848;SDS011;25518;47.878;15.914;2022-08-05T12:36:54;2.87;;;1.60;;
39848;SDS011;25518;47.878;15.914;2022-08-05T12:39:23;2.40;;;1.60;;
39848;SDS011;25518;47.878;15.914;2022-08-05T12:41:50;2.30;;;1.60;;
39848;SDS011;25518;47.878;15.914;2022-08-05T12:44:16;2.75;;;1.52;;
39848;SDS011;25518;47.878;15.914;2022-08-05T12:46:50;2.67;;;1.40;;
39848;SDS011;25518;47.878;15.914;2022-08-05T12:49:17;2.47;;;1.50;;
39848;SDS011;25518;47.878;15.914;2022-08-05T12:54:23;2.45;;;1.60;;
39848;SDS011;25518;47.878;15.914;2022-08-05T12:56:51;2.75;;;1.70;;
39848;SDS011;25518;47.878;15.914;2022-08-05T12:59:20;2.53;;;1.63;;
39848;SDS011;25518;47.878;15.914;2022-08-05T13:01:57;4.80;;;1.58;;
39848;SDS011;25518;47.878;15.914;2022-08-05T13:04:28;3.13;;;1.75;;
39848;SDS011;25518;47.878;15.914;2022-08-05T13:06:58;2.60;;;1.80;;
39848;SDS011;25518;47.878;15.914;2022-08-05T13:09:25;2.10;;;1.60;;
39848;SDS011;25518;47.878;15.914;2022-08-05T13:12:07;2.67;;;1.58;;
39848;SDS011;25518;47.878;15.914;2022-08-05T13:14:34;2.80;;;1.77;;
39848;SDS011;25518;47.878;15.914;2022-08-05T13:17:00;2.50;;;1.50;;
39848;SDS011;25518;47.878;15.914;2022-08-05T13:19:27;2.20;;;1.50;;
39848;SDS011;25518;47.878;15.914;2022-08-05T13:21:54;2.40;;;1.50;;
39848;SDS011;25518;47.878;15.914;2022-08-05T13:24:21;3.50;;;1.65;;
39848;SDS011;25518;47.878;15.914;2022-08-05T13:26:49;3.50;;;1.63;;
39848;SDS011;25518;47.878;15.914;2022-08-05T13:29:16;2.20;;;1.58;;
39848;SDS011;25518;47.878;15.914;2022-08-05T13:31:45;2.63;;;1.70;;
39848;SDS011;25518;47.878;15.914;2022-08-05T13:34:14;3.33;;;1.70;;
39848;SDS011;25518;47.878;15.914;2022-08-05T13:36:41;2.78;;;1.67;;
39848;SDS011;25518;47.878;15.914;2022-08-05T13:39:07;3.28;;;1.52;;
39848;SDS011;25518;47.878;15.914;2022-08-05T13:41:34;2.60;;;1.70;;
39848;SDS011;25518;47.878;15.914;2022-08-05T13:44:01;2.63;;;1.60;;
39848;SDS011;25518;47.878;15.914;2022-08-05T13:46:28;2.60;;;1.70;;
39848;SDS011;25518;47.878;15.914;2022-08-05T13:48:56;2.97;;;1.80;;
39848;SDS011;25518;47.878;15.914;2022-08-05T13:51:30;2.83;;;1.40;;
39848;SDS011;25518;47.878;15.914;2022-08-05T13:53:57;3.00;;;1.67;;
39848;SDS011;25518;47.878;15.914;2022-08-05T13:56:24;3.72;;;1.67;;
39848;SDS011;25518;47.878;15.914;2022-08-05T13:58:51;2.83;;;1.80;;
39848;SDS011;25518;47.878;15.914;2022-08-05T14:01:18;2.90;;;1.80;;
39848;SDS011;25518;47.878;15.914;2022-08-05T14:03:45;3.53;;;1.85;;
39848;SDS011;25518;47.878;15.914;2022-08-05T14:06:31;3.05;;;1.70;;
39848;SDS011;25518;47.878;15.914;2022-08-05T14:08:57;2.75;;;1.65;;
39848;SDS011;25518;47.878;15.914;2022-08-05T14:11:25;3.22;;;1.65;;
39848;SDS011;25518;47.878;15.914;2022-08-05T14:13:53;2.70;;;1.60;;
39848;SDS011;25518;47.878;15.914;2022-08-05T14:16:19;2.50;;;1.88;;
39848;SDS011;25518;47.878;15.914;2022-08-05T14:18:45;2.53;;;1.52;;
39848;SDS011;25518;47.878;15.914;2022-08-05T14:21:13;2.63;;;1.50;;
39848;SDS011;25518;47.878;15.914;2022-08-05T14:23:39;2.63;;;1.70;;
39848;SDS011;25518;47.878;15.914;2022-08-05T14:26:06;2.50;;;1.63;;
39848;SDS011;25518;47.878;15.914;2022-08-05T14:28:32;2.93;;;1.80;;
39848;SDS011;25518;47.878;15.914;2022-08-05T14:30:59;2.50;;;1.60;;
39848;SDS011;25518;47.878;15.914;2022-08-05T14:33:25;2.85;;;1.75;;
39848;SDS011;25518;47.878;15.914;2022-08-05T14:35:52;3.13;;;1.67;;
39848;SDS011;25518;47.878;15.914;2022-08-05T14:38:18;3.10;;;1.60;;
39848;SDS011;25518;47.878;15.914;2022-08-05T14:40:45;2.90;;;1.90;;
39848;SDS011;25518;47.878;15.914;2022-08-05T14:43:12;3.55;;;1.92;;
39848;SDS011;25518;47.878;15.914;2022-08-05T14:45:38;2.92;;;2.00;;
39848;SDS011;25518;47.878;15.914;2022-08-05T14:48:05;2.72;;;1.80;;
39848;SDS011;25518;47.878;15.914;2022-08-05T14:50:32;2.47;;;1.48;;
39848;SDS011;25518;47.878;15.914;2022-08-05T14:52:59;2.63;;;1.83;;
39848;SDS011;25518;47.878;15.914;2022-08-05T14:55:25;3.72;;;2.10;;
39848;SDS011;25518;47.878;15.914;2022-08-05T14:57:52;4.55;;;2.30;;
39848;SDS011;25518;47.878;15.914;2022-08-05T15:00:18;5.40;;;2.15;;
39848;SDS011;25518;47.878;15.914;2022-08-05T15:02:45;3.03;;;1.98;;
39848;SDS011;25518;47.878;15.914;2022-08-05T15:05:12;3.28;;;2.30;;
39848;SDS011;25518;47.878;15.914;2022-08-05T15:07:39;3.13;;;1.93;;
39848;SDS011;25518;47.878;15.914;2022-08-05T15:10:06;3.00;;;2.10;;
39848;SDS011;25518;47.878;15.914;2022-08-05T15:12:33;4.15;;;2.22;;